MHTG

Toncontín International Airport

Tegucigalpa, Honduras
TAF MHTG 221032Z 2212/2312 03005KT 7000 FEW006 BKN020 TX24/2219Z TN15/2312Z BECMG 2215/2217 9999 NSW SCT024 SCT080 BECMG 2303/2305 8000 VCSH FEW010 BKN022
Issued Valid From Valid To
Jan-22 @ 10:32 UTC
(6 hours ago)
Jan-22 @ 12:00 UTC
(5 hours ago)
Jan-23 @ 12:00 UTC
(in 19 hours)
Expired Click to View Jan-22 @ 12:00 to Jan-22 @ 15:00
TAF MHTG 221032Z 2212/2312 03005KT 7000 FEW006 BKN020 TX24/2219Z TN15/2312Z
Wind Visibility Clouds
30° at 5 knots 7,001 meters
  • Few at 600' AGL
  • Broken at 2,000' AGL
Becoming Jan-22 @ 15:00 to Jan-23 @ 03:00
BECMG 2215/2217 9999 NSW SCT024 SCT080
Wind Visibility Clouds Conditions
30° at 5 knots 10,000+ meters
  • Scattered at 2,400' AGL
  • Scattered at 8,000' AGL
Becoming Jan-23 @ 03:00 to Jan-23 @ 12:00
BECMG 2303/2305 8000 VCSH FEW010 BKN022
Wind Visibility Clouds
30° at 5 knots 7,998 meters
  • Few at 1,000' AGL
  • Broken at 2,200' AGL
TAF MHTG 221032Z 2212/2312 03005KT 7000 FEW006 BKN020 TX24/2219Z TN15/2312Z BECMG 2215/2217 9999 NSW SCT024 SCT080 BECMG 2303/2305 8000 VCSH FEW010 BKN022
Issued Jan-22 @ 10:32 UTC
(6 hours ago)
Valid From Jan-22 @ 12:00 UTC
(5 hours ago)
Valid To Jan-23 @ 12:00 UTC
(in 19 hours)
Jan-22 @ 12:00 - Jan-22 @ 15:00
Wind Visibility
30° at 5 knots 7,001 meters
Clouds
  • Few at 600' AGL
  • Broken at 2,000' AGL
Becoming Jan-22 @ 15:00 - Jan-23 @ 03:00
Wind Visibility
30° at 5 knots 10,000+ meters
Clouds
  • Scattered at 2,400' AGL
  • Scattered at 8,000' AGL
Conditions
Becoming Jan-23 @ 03:00 - Jan-23 @ 12:00
Wind Visibility
30° at 5 knots 7,998 meters
Clouds
  • Few at 1,000' AGL
  • Broken at 2,200' AGL